createdAt,value
2023-05-15T00:00:56.815Z,9.24
2023-05-15T00:20:57.110Z,9.08
2023-05-15T00:30:57.284Z,9.08
2023-05-15T00:40:57.498Z,9.24
2023-05-15T00:50:57.719Z,9.24
2023-05-15T01:00:57.906Z,9.24
2023-05-15T01:10:58.032Z,9.24
2023-05-15T01:20:58.229Z,9.08
2023-05-15T01:30:58.414Z,9.24
2023-05-15T01:40:58.613Z,9.08
2023-05-15T01:50:58.765Z,9.08
2023-05-15T02:00:58.961Z,9.08
2023-05-15T02:10:59.174Z,9.08
2023-05-15T02:20:59.325Z,9.24
2023-05-15T02:30:59.495Z,9.08
2023-05-15T02:40:59.684Z,9.08
2023-05-15T02:50:59.954Z,9.08
2023-05-15T03:00:59.970Z,9.24
2023-05-15T03:11:00.151Z,9.39
2023-05-15T03:21:00.294Z,9.24
2023-05-15T03:31:00.509Z,8.92
2023-05-15T03:41:00.673Z,9.08
2023-05-15T03:51:00.819Z,9.39
2023-05-15T04:01:00.977Z,9.24
2023-05-15T04:11:01.142Z,9.08
2023-05-15T04:21:01.333Z,9.39
2023-05-15T04:31:01.497Z,9.39
2023-05-15T04:41:01.678Z,9.24
2023-05-15T04:51:01.821Z,9.08
2023-05-15T05:01:03.884Z,9.08
2023-05-15T05:11:02.194Z,9.24
2023-05-15T05:21:02.349Z,9.24
2023-05-15T05:31:02.548Z,9.08
2023-05-15T05:41:02.744Z,9.24
2023-05-15T05:51:02.952Z,9.24
2023-05-15T06:01:03.081Z,9.24
2023-05-15T06:11:03.254Z,9.24
2023-05-15T06:21:03.451Z,9.08
2023-05-15T06:31:03.719Z,10.07
2023-05-15T06:41:03.709Z,9.75
2023-05-15T06:51:03.857Z,9.75
2023-05-15T07:01:04.044Z,9.75
2023-05-15T07:11:04.210Z,9.75
2023-05-15T07:21:04.358Z,9.75
2023-05-15T07:31:04.537Z,9.91
2023-05-15T07:41:04.668Z,9.75
2023-05-15T07:51:04.827Z,11.22
2023-05-15T08:01:04.986Z,11.22
2023-05-15T08:11:05.245Z,10.23
2023-05-15T08:21:05.261Z,11.22
2023-05-15T08:31:05.470Z,11.06
2023-05-15T08:41:05.621Z,11.73
2023-05-15T08:51:05.793Z,11.56
2023-05-15T09:01:05.969Z,11.40
2023-05-15T09:11:06.146Z,11.89
2023-05-15T09:21:06.317Z,11.73
2023-05-15T09:31:06.512Z,11.89
2023-05-15T09:41:06.694Z,11.73
2023-05-15T09:51:06.982Z,11.56
2023-05-15T10:01:07.075Z,11.56
2023-05-15T10:11:07.014Z,11.23
2023-05-15T10:21:07.178Z,12.04
2023-05-15T10:31:07.370Z,11.34
2023-05-15T10:41:17.346Z,10.97
2023-05-15T10:51:10.637Z,9.03
2023-05-15T11:01:07.903Z,10.41
2023-05-15T11:11:08.030Z,9.64
2023-05-15T11:21:08.309Z,9.44
2023-05-15T11:31:08.536Z,9.44
2023-05-15T11:41:08.655Z,9.99
2023-05-15T11:51:08.847Z,11.16
2023-05-15T12:01:10.319Z,10.60
2023-05-15T12:11:09.137Z,9.42
2023-05-15T12:21:09.316Z,11.55
2023-05-15T12:31:09.493Z,10.55
2023-05-15T12:41:09.738Z,8.92
2023-05-15T12:51:09.941Z,10.37
2023-05-15T13:01:10.122Z,11.49
2023-05-15T13:11:10.309Z,11.32
2023-05-15T13:21:10.483Z,11.30
2023-05-15T13:31:10.812Z,10.28
2023-05-15T13:41:10.793Z,10.80
2023-05-15T13:51:11.011Z,10.55
2023-05-15T14:01:11.357Z,10.80
2023-05-15T14:11:11.319Z,10.61
2023-05-15T14:21:11.601Z,11.06
2023-05-15T14:31:11.746Z,11.55
2023-05-15T14:41:11.930Z,11.05
2023-05-15T14:51:12.113Z,10.82
2023-05-15T15:01:12.330Z,10.82
2023-05-15T15:11:12.537Z,10.82
2023-05-15T15:21:12.694Z,9.65
2023-05-15T15:31:12.899Z,11.49
2023-05-15T15:41:13.063Z,9.65
2023-05-15T15:51:13.280Z,10.31
2023-05-15T16:01:13.497Z,8.92
2023-05-15T16:11:13.699Z,9.87
2023-05-15T16:21:14.103Z,9.87
2023-05-15T16:31:14.522Z,9.87
2023-05-15T16:41:14.699Z,10.31
2023-05-15T16:51:14.976Z,10.09
2023-05-15T17:01:15.213Z,9.36
2023-05-15T17:11:15.449Z,10.31
2023-05-15T17:21:15.541Z,9.78
2023-05-15T17:31:15.733Z,10.20
2023-05-15T17:41:15.828Z,9.99
2023-05-15T17:51:15.948Z,10.60
2023-05-15T18:01:16.109Z,10.60
2023-05-15T18:11:22.315Z,10.80
2023-05-15T18:21:17.422Z,10.40
2023-05-15T18:31:16.601Z,10.22
2023-05-15T18:41:16.719Z,10.41
2023-05-15T18:51:16.820Z,10.60
2023-05-15T19:01:16.991Z,10.60
2023-05-15T19:11:17.994Z,10.79
2023-05-15T19:21:17.313Z,10.36
2023-05-15T19:31:30.803Z,10.36
2023-05-15T19:41:18.529Z,10.36
2023-05-15T19:51:17.603Z,10.54
2023-05-15T20:01:17.740Z,10.07
2023-05-15T20:11:17.817Z,11.06
2023-05-15T20:21:17.934Z,11.06
2023-05-15T20:31:18.219Z,11.06
2023-05-15T20:41:18.232Z,10.24
2023-05-15T20:51:18.548Z,10.07
2023-05-15T21:01:18.321Z,10.24
2023-05-15T21:11:18.492Z,10.24
2023-05-15T21:21:18.836Z,10.24
2023-05-15T21:31:18.874Z,10.41
2023-05-15T21:41:19.067Z,10.24
2023-05-15T21:51:19.234Z,10.24
2023-05-15T22:01:19.431Z,10.24
2023-05-15T22:11:19.588Z,10.24
2023-05-15T22:21:19.780Z,10.24
2023-05-15T22:31:19.997Z,10.07
2023-05-15T22:41:20.165Z,10.07
2023-05-15T22:51:20.365Z,9.42
2023-05-15T23:01:20.560Z,9.75
2023-05-15T23:11:20.730Z,9.75
2023-05-15T23:21:20.912Z,9.75
2023-05-15T23:31:21.139Z,9.75
2023-05-15T23:41:21.343Z,9.75
2023-05-15T23:51:21.511Z,9.91
